sensor_id;sensor_type;location;lat;lon;timestamp;P1;durP1;ratioP1;P2;durP2;ratioP2
49548;SDS011;35450;44.518;7.466;2023-10-08T00:00:41;13.63;;;8.10;;
49548;SDS011;35450;44.518;7.466;2023-10-08T00:03:56;12.32;;;8.23;;
49548;SDS011;35450;44.518;7.466;2023-10-08T00:07:07;15.77;;;7.30;;
49548;SDS011;35450;44.518;7.466;2023-10-08T00:10:11;9.35;;;6.80;;
49548;SDS011;35450;44.518;7.466;2023-10-08T00:13:16;11.73;;;7.32;;
49548;SDS011;35450;44.518;7.466;2023-10-08T00:16:20;10.63;;;8.13;;
49548;SDS011;35450;44.518;7.466;2023-10-08T00:19:25;13.98;;;8.27;;
49548;SDS011;35450;44.518;7.466;2023-10-08T00:22:29;12.93;;;8.63;;
49548;SDS011;35450;44.518;7.466;2023-10-08T00:25:39;12.88;;;8.07;;
49548;SDS011;35450;44.518;7.466;2023-10-08T00:28:44;9.52;;;6.80;;
49548;SDS011;35450;44.518;7.466;2023-10-08T00:31:51;12.65;;;7.50;;
49548;SDS011;35450;44.518;7.466;2023-10-08T00:34:55;14.48;;;7.90;;
49548;SDS011;35450;44.518;7.466;2023-10-08T00:37:59;14.52;;;7.15;;
49548;SDS011;35450;44.518;7.466;2023-10-08T00:41:04;11.90;;;5.32;;
49548;SDS011;35450;44.518;7.466;2023-10-08T00:44:10;13.95;;;7.53;;
49548;SDS011;35450;44.518;7.466;2023-10-08T00:47:34;11.95;;;6.50;;
49548;SDS011;35450;44.518;7.466;2023-10-08T00:50:46;11.38;;;6.40;;
49548;SDS011;35450;44.518;7.466;2023-10-08T00:53:59;9.43;;;5.25;;
49548;SDS011;35450;44.518;7.466;2023-10-08T00:57:09;11.98;;;6.93;;
49548;SDS011;35450;44.518;7.466;2023-10-08T01:00:14;9.52;;;4.75;;
49548;SDS011;35450;44.518;7.466;2023-10-08T01:03:27;9.98;;;3.80;;
49548;SDS011;35450;44.518;7.466;2023-10-08T01:06:32;9.93;;;3.72;;
49548;SDS011;35450;44.518;7.466;2023-10-08T01:09:36;7.60;;;4.18;;
49548;SDS011;35450;44.518;7.466;2023-10-08T01:12:40;10.10;;;4.07;;
49548;SDS011;35450;44.518;7.466;2023-10-08T01:15:57;9.23;;;4.72;;
49548;SDS011;35450;44.518;7.466;2023-10-08T01:19:01;11.07;;;4.13;;
49548;SDS011;35450;44.518;7.466;2023-10-08T01:22:06;11.73;;;4.57;;
49548;SDS011;35450;44.518;7.466;2023-10-08T01:25:19;9.02;;;3.30;;
49548;SDS011;35450;44.518;7.466;2023-10-08T01:28:27;13.40;;;3.38;;
49548;SDS011;35450;44.518;7.466;2023-10-08T01:31:34;8.32;;;3.10;;
49548;SDS011;35450;44.518;7.466;2023-10-08T01:34:40;11.65;;;3.22;;
49548;SDS011;35450;44.518;7.466;2023-10-08T01:37:54;10.30;;;3.63;;
49548;SDS011;35450;44.518;7.466;2023-10-08T01:40:59;9.63;;;3.65;;
49548;SDS011;35450;44.518;7.466;2023-10-08T01:44:08;8.15;;;3.63;;
49548;SDS011;35450;44.518;7.466;2023-10-08T01:47:13;10.18;;;3.25;;
49548;SDS011;35450;44.518;7.466;2023-10-08T01:50:20;7.40;;;3.63;;
49548;SDS011;35450;44.518;7.466;2023-10-08T01:53:25;11.25;;;3.63;;
49548;SDS011;35450;44.518;7.466;2023-10-08T01:56:30;10.60;;;3.75;;
49548;SDS011;35450;44.518;7.466;2023-10-08T01:59:33;8.65;;;3.47;;
49548;SDS011;35450;44.518;7.466;2023-10-08T02:02:37;9.32;;;3.22;;
49548;SDS011;35450;44.518;7.466;2023-10-08T02:05:44;12.80;;;3.35;;
49548;SDS011;35450;44.518;7.466;2023-10-08T02:08:49;12.40;;;3.05;;
49548;SDS011;35450;44.518;7.466;2023-10-08T02:11:54;13.70;;;3.00;;
49548;SDS011;35450;44.518;7.466;2023-10-08T02:14:58;7.63;;;2.88;;
49548;SDS011;35450;44.518;7.466;2023-10-08T02:18:01;11.55;;;3.72;;
49548;SDS011;35450;44.518;7.466;2023-10-08T02:21:06;8.55;;;3.42;;
49548;SDS011;35450;44.518;7.466;2023-10-08T02:24:13;14.18;;;4.13;;
49548;SDS011;35450;44.518;7.466;2023-10-08T02:27:18;17.30;;;3.22;;
49548;SDS011;35450;44.518;7.466;2023-10-08T02:30:22;13.80;;;3.55;;
49548;SDS011;35450;44.518;7.466;2023-10-08T02:33:26;8.68;;;3.45;;
49548;SDS011;35450;44.518;7.466;2023-10-08T02:36:30;10.52;;;3.90;;
49548;SDS011;35450;44.518;7.466;2023-10-08T02:39:34;9.27;;;3.20;;
49548;SDS011;35450;44.518;7.466;2023-10-08T02:42:38;21.65;;;4.20;;
49548;SDS011;35450;44.518;7.466;2023-10-08T02:45:43;9.95;;;3.10;;
49548;SDS011;35450;44.518;7.466;2023-10-08T02:48:58;8.57;;;3.03;;
49548;SDS011;35450;44.518;7.466;2023-10-08T02:52:06;12.30;;;3.10;;
49548;SDS011;35450;44.518;7.466;2023-10-08T02:55:12;10.02;;;2.88;;
49548;SDS011;35450;44.518;7.466;2023-10-08T02:58:38;18.27;;;3.45;;
49548;SDS011;35450;44.518;7.466;2023-10-08T03:01:42;8.07;;;3.45;;
49548;SDS011;35450;44.518;7.466;2023-10-08T03:04:47;16.60;;;3.47;;
49548;SDS011;35450;44.518;7.466;2023-10-08T03:07:56;15.27;;;3.15;;
49548;SDS011;35450;44.518;7.466;2023-10-08T03:11:01;13.95;;;2.97;;
49548;SDS011;35450;44.518;7.466;2023-10-08T03:14:08;10.73;;;2.78;;
49548;SDS011;35450;44.518;7.466;2023-10-08T03:17:18;16.92;;;4.35;;
49548;SDS011;35450;44.518;7.466;2023-10-08T03:20:23;14.35;;;3.65;;
49548;SDS011;35450;44.518;7.466;2023-10-08T03:23:53;14.80;;;3.15;;
49548;SDS011;35450;44.518;7.466;2023-10-08T03:27:01;10.18;;;2.65;;
49548;SDS011;35450;44.518;7.466;2023-10-08T03:30:18;9.57;;;3.30;;
49548;SDS011;35450;44.518;7.466;2023-10-08T03:33:22;14.77;;;3.38;;
49548;SDS011;35450;44.518;7.466;2023-10-08T03:36:27;12.85;;;3.15;;
49548;SDS011;35450;44.518;7.466;2023-10-08T03:39:37;12.38;;;3.08;;
49548;SDS011;35450;44.518;7.466;2023-10-08T03:42:55;14.25;;;3.42;;
49548;SDS011;35450;44.518;7.466;2023-10-08T03:46:00;10.35;;;2.58;;
49548;SDS011;35450;44.518;7.466;2023-10-08T03:49:09;10.23;;;2.50;;
49548;SDS011;35450;44.518;7.466;2023-10-08T03:52:18;15.20;;;2.95;;
49548;SDS011;35450;44.518;7.466;2023-10-08T03:55:27;13.00;;;3.20;;
49548;SDS011;35450;44.518;7.466;2023-10-08T03:58:31;10.95;;;3.03;;
49548;SDS011;35450;44.518;7.466;2023-10-08T04:01:43;10.77;;;3.30;;
49548;SDS011;35450;44.518;7.466;2023-10-08T04:04:48;12.95;;;3.13;;
49548;SDS011;35450;44.518;7.466;2023-10-08T04:07:55;11.18;;;2.70;;
49548;SDS011;35450;44.518;7.466;2023-10-08T04:11:02;22.50;;;4.32;;
49548;SDS011;35450;44.518;7.466;2023-10-08T04:14:24;8.55;;;2.88;;
49548;SDS011;35450;44.518;7.466;2023-10-08T04:17:28;5.93;;;3.08;;
49548;SDS011;35450;44.518;7.466;2023-10-08T04:20:32;13.05;;;3.10;;
49548;SDS011;35450;44.518;7.466;2023-10-08T04:23:39;15.48;;;3.45;;
49548;SDS011;35450;44.518;7.466;2023-10-08T04:26:43;9.10;;;3.00;;
49548;SDS011;35450;44.518;7.466;2023-10-08T04:29:47;7.95;;;2.92;;
49548;SDS011;35450;44.518;7.466;2023-10-08T04:32:53;16.38;;;3.47;;
49548;SDS011;35450;44.518;7.466;2023-10-08T04:35:57;14.82;;;3.53;;
49548;SDS011;35450;44.518;7.466;2023-10-08T04:39:05;15.57;;;2.40;;
49548;SDS011;35450;44.518;7.466;2023-10-08T04:42:16;15.07;;;3.35;;
49548;SDS011;35450;44.518;7.466;2023-10-08T04:45:28;21.65;;;3.47;;
49548;SDS011;35450;44.518;7.466;2023-10-08T04:48:37;14.57;;;3.22;;
49548;SDS011;35450;44.518;7.466;2023-10-08T04:51:41;16.23;;;3.22;;
49548;SDS011;35450;44.518;7.466;2023-10-08T04:54:47;13.50;;;3.42;;
49548;SDS011;35450;44.518;7.466;2023-10-08T04:57:57;10.30;;;2.65;;
49548;SDS011;35450;44.518;7.466;2023-10-08T05:01:03;10.48;;;2.47;;
49548;SDS011;35450;44.518;7.466;2023-10-08T05:04:23;12.60;;;3.50;;
49548;SDS011;35450;44.518;7.466;2023-10-08T05:07:27;9.43;;;3.20;;
49548;SDS011;35450;44.518;7.466;2023-10-08T05:14:19;10.13;;;2.75;;
49548;SDS011;35450;44.518;7.466;2023-10-08T05:17:36;12.07;;;2.63;;
49548;SDS011;35450;44.518;7.466;2023-10-08T05:20:59;5.85;;;2.92;;
49548;SDS011;35450;44.518;7.466;2023-10-08T05:24:07;12.63;;;2.78;;
49548;SDS011;35450;44.518;7.466;2023-10-08T05:27:16;11.57;;;3.65;;
49548;SDS011;35450;44.518;7.466;2023-10-08T05:30:38;20.77;;;4.30;;
49548;SDS011;35450;44.518;7.466;2023-10-08T05:33:56;13.52;;;3.25;;
49548;SDS011;35450;44.518;7.466;2023-10-08T05:37:18;12.35;;;2.80;;
49548;SDS011;35450;44.518;7.466;2023-10-08T05:40:45;14.30;;;3.05;;
49548;SDS011;35450;44.518;7.466;2023-10-08T05:44:04;15.48;;;2.85;;
49548;SDS011;35450;44.518;7.466;2023-10-08T05:47:27;10.77;;;2.70;;
49548;SDS011;35450;44.518;7.466;2023-10-08T05:50:36;17.55;;;3.05;;
49548;SDS011;35450;44.518;7.466;2023-10-08T05:53:46;15.82;;;3.00;;
49548;SDS011;35450;44.518;7.466;2023-10-08T05:56:53;17.00;;;3.42;;
49548;SDS011;35450;44.518;7.466;2023-10-08T06:00:16;18.67;;;3.08;;
49548;SDS011;35450;44.518;7.466;2023-10-08T06:03:33;16.88;;;3.00;;
49548;SDS011;35450;44.518;7.466;2023-10-08T06:07:02;16.25;;;3.00;;
49548;SDS011;35450;44.518;7.466;2023-10-08T06:13:35;12.15;;;4.15;;
49548;SDS011;35450;44.518;7.466;2023-10-08T06:16:54;16.52;;;3.15;;
49548;SDS011;35450;44.518;7.466;2023-10-08T06:20:16;16.88;;;2.80;;
49548;SDS011;35450;44.518;7.466;2023-10-08T06:23:20;13.55;;;3.50;;
49548;SDS011;35450;44.518;7.466;2023-10-08T06:26:26;19.55;;;4.07;;
49548;SDS011;35450;44.518;7.466;2023-10-08T06:29:31;20.90;;;3.72;;
49548;SDS011;35450;44.518;7.466;2023-10-08T06:32:35;16.10;;;3.90;;
49548;SDS011;35450;44.518;7.466;2023-10-08T06:35:40;12.15;;;5.15;;
49548;SDS011;35450;44.518;7.466;2023-10-08T06:38:47;12.10;;;5.28;;
49548;SDS011;35450;44.518;7.466;2023-10-08T06:41:52;14.38;;;4.68;;
49548;SDS011;35450;44.518;7.466;2023-10-08T06:45:00;11.43;;;4.18;;
49548;SDS011;35450;44.518;7.466;2023-10-08T06:48:05;12.15;;;4.10;;
49548;SDS011;35450;44.518;7.466;2023-10-08T06:51:09;9.75;;;4.13;;
49548;SDS011;35450;44.518;7.466;2023-10-08T06:54:17;16.77;;;5.60;;
49548;SDS011;35450;44.518;7.466;2023-10-08T06:57:21;20.17;;;4.78;;
49548;SDS011;35450;44.518;7.466;2023-10-08T07:00:29;12.43;;;3.97;;
49548;SDS011;35450;44.518;7.466;2023-10-08T07:06:45;13.95;;;4.30;;
49548;SDS011;35450;44.518;7.466;2023-10-08T07:09:53;11.15;;;3.58;;
49548;SDS011;35450;44.518;7.466;2023-10-08T07:13:00;11.77;;;4.05;;
49548;SDS011;35450;44.518;7.466;2023-10-08T07:16:06;13.82;;;3.95;;
49548;SDS011;35450;44.518;7.466;2023-10-08T07:19:14;8.00;;;4.47;;
49548;SDS011;35450;44.518;7.466;2023-10-08T07:22:22;16.75;;;4.57;;
49548;SDS011;35450;44.518;7.466;2023-10-08T07:25:26;10.55;;;3.60;;
49548;SDS011;35450;44.518;7.466;2023-10-08T07:28:31;9.98;;;3.35;;
49548;SDS011;35450;44.518;7.466;2023-10-08T07:31:37;11.30;;;4.03;;
49548;SDS011;35450;44.518;7.466;2023-10-08T07:34:44;14.80;;;4.15;;
49548;SDS011;35450;44.518;7.466;2023-10-08T07:37:48;15.23;;;4.25;;
49548;SDS011;35450;44.518;7.466;2023-10-08T07:40:52;12.48;;;3.95;;
49548;SDS011;35450;44.518;7.466;2023-10-08T07:43:58;13.50;;;4.22;;
49548;SDS011;35450;44.518;7.466;2023-10-08T07:47:02;11.25;;;3.92;;
49548;SDS011;35450;44.518;7.466;2023-10-08T07:50:08;15.90;;;4.15;;
49548;SDS011;35450;44.518;7.466;2023-10-08T07:53:15;16.42;;;4.47;;
49548;SDS011;35450;44.518;7.466;2023-10-08T07:56:22;9.48;;;4.78;;
49548;SDS011;35450;44.518;7.466;2023-10-08T07:59:27;18.30;;;3.67;;
49548;SDS011;35450;44.518;7.466;2023-10-08T08:02:30;16.58;;;4.15;;
49548;SDS011;35450;44.518;7.466;2023-10-08T08:05:34;11.77;;;4.47;;
49548;SDS011;35450;44.518;7.466;2023-10-08T08:08:41;11.90;;;4.18;;
49548;SDS011;35450;44.518;7.466;2023-10-08T08:11:46;13.63;;;4.45;;
49548;SDS011;35450;44.518;7.466;2023-10-08T08:14:50;18.50;;;4.40;;
49548;SDS011;35450;44.518;7.466;2023-10-08T08:17:55;15.05;;;4.10;;
49548;SDS011;35450;44.518;7.466;2023-10-08T08:20:59;23.58;;;3.80;;
49548;SDS011;35450;44.518;7.466;2023-10-08T08:24:05;13.38;;;4.45;;
49548;SDS011;35450;44.518;7.466;2023-10-08T08:27:09;10.70;;;4.05;;
49548;SDS011;35450;44.518;7.466;2023-10-08T08:30:27;26.90;;;4.95;;
49548;SDS011;35450;44.518;7.466;2023-10-08T08:33:31;10.45;;;3.90;;
49548;SDS011;35450;44.518;7.466;2023-10-08T08:36:56;9.93;;;3.80;;
49548;SDS011;35450;44.518;7.466;2023-10-08T08:39:59;12.00;;;3.97;;
49548;SDS011;35450;44.518;7.466;2023-10-08T08:43:04;10.68;;;4.00;;
49548;SDS011;35450;44.518;7.466;2023-10-08T08:46:09;12.57;;;4.00;;
49548;SDS011;35450;44.518;7.466;2023-10-08T08:49:15;10.68;;;3.70;;
49548;SDS011;35450;44.518;7.466;2023-10-08T08:52:21;13.15;;;4.50;;
49548;SDS011;35450;44.518;7.466;2023-10-08T08:55:25;11.82;;;4.22;;
49548;SDS011;35450;44.518;7.466;2023-10-08T08:58:32;14.40;;;5.18;;
49548;SDS011;35450;44.518;7.466;2023-10-08T09:01:37;14.45;;;6.15;;
49548;SDS011;35450;44.518;7.466;2023-10-08T09:04:42;13.18;;;5.18;;
49548;SDS011;35450;44.518;7.466;2023-10-08T09:07:56;16.38;;;3.95;;
49548;SDS011;35450;44.518;7.466;2023-10-08T09:11:01;16.38;;;4.38;;
49548;SDS011;35450;44.518;7.466;2023-10-08T09:14:07;16.95;;;4.45;;
49548;SDS011;35450;44.518;7.466;2023-10-08T09:17:13;13.68;;;4.63;;
49548;SDS011;35450;44.518;7.466;2023-10-08T09:20:20;11.32;;;3.63;;
49548;SDS011;35450;44.518;7.466;2023-10-08T09:23:24;11.15;;;3.90;;
49548;SDS011;35450;44.518;7.466;2023-10-08T09:26:29;12.18;;;3.65;;
49548;SDS011;35450;44.518;7.466;2023-10-08T09:29:34;19.55;;;4.43;;
49548;SDS011;35450;44.518;7.466;2023-10-08T09:32:44;22.15;;;3.90;;
49548;SDS011;35450;44.518;7.466;2023-10-08T09:35:48;12.73;;;3.97;;
49548;SDS011;35450;44.518;7.466;2023-10-08T09:38:54;12.85;;;3.30;;
49548;SDS011;35450;44.518;7.466;2023-10-08T09:42:01;12.23;;;3.25;;
49548;SDS011;35450;44.518;7.466;2023-10-08T09:45:06;14.32;;;3.58;;
49548;SDS011;35450;44.518;7.466;2023-10-08T09:48:11;13.88;;;3.80;;
49548;SDS011;35450;44.518;7.466;2023-10-08T09:51:19;16.00;;;4.53;;
49548;SDS011;35450;44.518;7.466;2023-10-08T09:54:27;22.73;;;3.58;;
49548;SDS011;35450;44.518;7.466;2023-10-08T09:57:36;9.68;;;3.45;;
49548;SDS011;35450;44.518;7.466;2023-10-08T10:00:41;13.50;;;3.70;;
49548;SDS011;35450;44.518;7.466;2023-10-08T10:03:48;15.52;;;3.95;;
49548;SDS011;35450;44.518;7.466;2023-10-08T10:06:53;20.23;;;3.90;;
49548;SDS011;35450;44.518;7.466;2023-10-08T10:09:58;10.15;;;4.03;;
49548;SDS011;35450;44.518;7.466;2023-10-08T10:13:02;17.15;;;4.32;;
49548;SDS011;35450;44.518;7.466;2023-10-08T10:16:13;13.57;;;3.28;;
49548;SDS011;35450;44.518;7.466;2023-10-08T10:19:21;14.73;;;3.60;;
49548;SDS011;35450;44.518;7.466;2023-10-08T10:22:30;18.17;;;4.85;;
49548;SDS011;35450;44.518;7.466;2023-10-08T10:28:50;11.07;;;3.75;;
49548;SDS011;35450;44.518;7.466;2023-10-08T10:32:12;17.15;;;4.55;;
49548;SDS011;35450;44.518;7.466;2023-10-08T10:35:18;13.68;;;3.65;;
49548;SDS011;35450;44.518;7.466;2023-10-08T10:38:23;16.50;;;4.53;;
49548;SDS011;35450;44.518;7.466;2023-10-08T10:41:30;24.05;;;5.20;;
49548;SDS011;35450;44.518;7.466;2023-10-08T10:44:34;13.27;;;3.90;;
49548;SDS011;35450;44.518;7.466;2023-10-08T10:47:44;17.30;;;3.35;;
49548;SDS011;35450;44.518;7.466;2023-10-08T10:50:49;28.92;;;4.35;;
49548;SDS011;35450;44.518;7.466;2023-10-08T10:54:00;12.98;;;3.90;;
49548;SDS011;35450;44.518;7.466;2023-10-08T10:57:11;15.15;;;3.83;;
49548;SDS011;35450;44.518;7.466;2023-10-08T11:00:24;15.32;;;3.75;;
49548;SDS011;35450;44.518;7.466;2023-10-08T11:03:35;17.63;;;3.95;;
49548;SDS011;35450;44.518;7.466;2023-10-08T11:06:39;19.25;;;4.20;;
49548;SDS011;35450;44.518;7.466;2023-10-08T11:09:43;23.63;;;3.90;;
49548;SDS011;35450;44.518;7.466;2023-10-08T11:12:49;13.55;;;4.70;;
49548;SDS011;35450;44.518;7.466;2023-10-08T11:15:57;20.02;;;4.18;;
49548;SDS011;35450;44.518;7.466;2023-10-08T11:19:02;13.52;;;3.05;;
49548;SDS011;35450;44.518;7.466;2023-10-08T11:22:12;21.92;;;4.43;;
49548;SDS011;35450;44.518;7.466;2023-10-08T11:25:23;17.48;;;3.75;;
49548;SDS011;35450;44.518;7.466;2023-10-08T11:28:37;16.35;;;4.18;;
49548;SDS011;35450;44.518;7.466;2023-10-08T11:31:45;20.00;;;4.57;;
49548;SDS011;35450;44.518;7.466;2023-10-08T11:34:49;17.20;;;4.43;;
49548;SDS011;35450;44.518;7.466;2023-10-08T11:37:58;19.48;;;3.60;;
49548;SDS011;35450;44.518;7.466;2023-10-08T11:41:14;14.63;;;3.55;;
49548;SDS011;35450;44.518;7.466;2023-10-08T11:44:25;12.57;;;3.20;;
49548;SDS011;35450;44.518;7.466;2023-10-08T11:47:33;19.50;;;3.38;;
49548;SDS011;35450;44.518;7.466;2023-10-08T11:50:38;16.95;;;3.00;;
49548;SDS011;35450;44.518;7.466;2023-10-08T11:53:44;20.50;;;4.22;;
49548;SDS011;35450;44.518;7.466;2023-10-08T11:56:48;20.92;;;4.53;;
49548;SDS011;35450;44.518;7.466;2023-10-08T11:59:53;29.83;;;4.00;;
49548;SDS011;35450;44.518;7.466;2023-10-08T12:02:58;20.00;;;3.13;;
49548;SDS011;35450;44.518;7.466;2023-10-08T12:06:05;18.50;;;3.30;;
49548;SDS011;35450;44.518;7.466;2023-10-08T12:09:08;20.55;;;2.97;;
49548;SDS011;35450;44.518;7.466;2023-10-08T12:12:15;14.73;;;3.05;;
49548;SDS011;35450;44.518;7.466;2023-10-08T12:15:24;15.50;;;3.38;;
49548;SDS011;35450;44.518;7.466;2023-10-08T12:18:38;19.10;;;3.20;;
49548;SDS011;35450;44.518;7.466;2023-10-08T12:21:47;21.95;;;3.42;;
49548;SDS011;35450;44.518;7.466;2023-10-08T12:24:51;18.15;;;3.75;;
49548;SDS011;35450;44.518;7.466;2023-10-08T12:27:55;16.88;;;3.28;;
49548;SDS011;35450;44.518;7.466;2023-10-08T12:31:00;13.52;;;2.55;;
49548;SDS011;35450;44.518;7.466;2023-10-08T12:34:04;17.75;;;3.63;;
49548;SDS011;35450;44.518;7.466;2023-10-08T12:37:09;20.38;;;2.97;;
49548;SDS011;35450;44.518;7.466;2023-10-08T12:40:13;26.73;;;3.63;;
49548;SDS011;35450;44.518;7.466;2023-10-08T12:43:25;22.65;;;2.60;;
49548;SDS011;35450;44.518;7.466;2023-10-08T12:46:31;18.90;;;3.60;;
49548;SDS011;35450;44.518;7.466;2023-10-08T12:49:36;15.48;;;2.85;;
49548;SDS011;35450;44.518;7.466;2023-10-08T12:52:43;23.33;;;2.80;;
49548;SDS011;35450;44.518;7.466;2023-10-08T12:55:56;20.33;;;3.67;;
49548;SDS011;35450;44.518;7.466;2023-10-08T12:59:01;18.00;;;2.65;;
49548;SDS011;35450;44.518;7.466;2023-10-08T13:02:11;20.88;;;4.00;;
49548;SDS011;35450;44.518;7.466;2023-10-08T13:05:15;17.83;;;3.15;;
49548;SDS011;35450;44.518;7.466;2023-10-08T13:08:20;21.77;;;3.38;;
49548;SDS011;35450;44.518;7.466;2023-10-08T13:11:27;28.45;;;3.35;;
49548;SDS011;35450;44.518;7.466;2023-10-08T13:14:32;27.35;;;3.33;;
49548;SDS011;35450;44.518;7.466;2023-10-08T13:17:38;16.38;;;3.08;;
49548;SDS011;35450;44.518;7.466;2023-10-08T13:20:45;19.38;;;3.60;;
49548;SDS011;35450;44.518;7.466;2023-10-08T13:23:50;15.35;;;3.10;;
49548;SDS011;35450;44.518;7.466;2023-10-08T13:26:55;22.33;;;3.25;;
49548;SDS011;35450;44.518;7.466;2023-10-08T13:30:01;27.95;;;3.80;;
49548;SDS011;35450;44.518;7.466;2023-10-08T13:33:09;27.98;;;3.47;;
49548;SDS011;35450;44.518;7.466;2023-10-08T13:36:14;23.20;;;3.97;;
49548;SDS011;35450;44.518;7.466;2023-10-08T13:39:18;18.20;;;2.80;;
49548;SDS011;35450;44.518;7.466;2023-10-08T13:42:22;14.13;;;3.38;;
49548;SDS011;35450;44.518;7.466;2023-10-08T13:45:27;24.50;;;3.20;;
49548;SDS011;35450;44.518;7.466;2023-10-08T13:48:35;14.57;;;2.78;;
49548;SDS011;35450;44.518;7.466;2023-10-08T13:51:40;28.33;;;3.63;;
49548;SDS011;35450;44.518;7.466;2023-10-08T13:54:44;25.10;;;4.10;;
49548;SDS011;35450;44.518;7.466;2023-10-08T13:57:55;27.05;;;4.68;;
49548;SDS011;35450;44.518;7.466;2023-10-08T14:01:00;23.27;;;3.75;;
49548;SDS011;35450;44.518;7.466;2023-10-08T14:04:07;32.42;;;3.72;;
49548;SDS011;35450;44.518;7.466;2023-10-08T14:07:12;19.60;;;2.95;;
49548;SDS011;35450;44.518;7.466;2023-10-08T14:10:20;14.93;;;2.75;;
49548;SDS011;35450;44.518;7.466;2023-10-08T14:13:32;24.75;;;3.33;;
49548;SDS011;35450;44.518;7.466;2023-10-08T14:16:41;31.60;;;2.90;;
49548;SDS011;35450;44.518;7.466;2023-10-08T14:19:49;32.72;;;4.18;;
49548;SDS011;35450;44.518;7.466;2023-10-08T14:23:03;36.38;;;3.25;;
49548;SDS011;35450;44.518;7.466;2023-10-08T14:26:08;24.77;;;4.00;;
49548;SDS011;35450;44.518;7.466;2023-10-08T14:29:12;21.40;;;3.40;;
49548;SDS011;35450;44.518;7.466;2023-10-08T14:32:20;29.88;;;4.25;;
49548;SDS011;35450;44.518;7.466;2023-10-08T14:35:27;16.10;;;3.05;;
49548;SDS011;35450;44.518;7.466;2023-10-08T14:38:49;26.25;;;3.33;;
49548;SDS011;35450;44.518;7.466;2023-10-08T14:42:12;25.60;;;3.67;;
49548;SDS011;35450;44.518;7.466;2023-10-08T14:45:34;28.33;;;4.45;;
49548;SDS011;35450;44.518;7.466;2023-10-08T14:48:39;18.23;;;3.15;;
49548;SDS011;35450;44.518;7.466;2023-10-08T14:51:44;38.70;;;4.35;;
49548;SDS011;35450;44.518;7.466;2023-10-08T14:54:52;27.48;;;3.17;;
49548;SDS011;35450;44.518;7.466;2023-10-08T14:57:56;22.30;;;4.00;;
49548;SDS011;35450;44.518;7.466;2023-10-08T15:01:00;26.92;;;3.55;;
49548;SDS011;35450;44.518;7.466;2023-10-08T15:04:04;20.50;;;3.75;;
49548;SDS011;35450;44.518;7.466;2023-10-08T15:07:08;23.00;;;2.80;;
49548;SDS011;35450;44.518;7.466;2023-10-08T15:10:14;33.30;;;2.97;;
49548;SDS011;35450;44.518;7.466;2023-10-08T15:13:19;29.38;;;4.10;;
49548;SDS011;35450;44.518;7.466;2023-10-08T15:16:23;18.45;;;3.13;;
49548;SDS011;35450;44.518;7.466;2023-10-08T15:19:29;29.90;;;4.40;;
49548;SDS011;35450;44.518;7.466;2023-10-08T15:22:33;26.33;;;3.50;;
49548;SDS011;35450;44.518;7.466;2023-10-08T15:25:38;20.52;;;3.20;;
49548;SDS011;35450;44.518;7.466;2023-10-08T15:28:43;19.80;;;2.67;;
49548;SDS011;35450;44.518;7.466;2023-10-08T15:31:47;27.45;;;3.92;;
49548;SDS011;35450;44.518;7.466;2023-10-08T15:34:53;23.50;;;4.18;;
49548;SDS011;35450;44.518;7.466;2023-10-08T15:37:57;23.52;;;3.00;;
49548;SDS011;35450;44.518;7.466;2023-10-08T15:41:01;28.25;;;3.90;;
49548;SDS011;35450;44.518;7.466;2023-10-08T15:44:05;18.23;;;3.42;;
49548;SDS011;35450;44.518;7.466;2023-10-08T15:47:09;20.52;;;4.00;;
49548;SDS011;35450;44.518;7.466;2023-10-08T15:50:13;19.85;;;3.47;;
49548;SDS011;35450;44.518;7.466;2023-10-08T15:53:17;21.27;;;3.50;;
49548;SDS011;35450;44.518;7.466;2023-10-08T15:56:21;24.08;;;4.60;;
49548;SDS011;35450;44.518;7.466;2023-10-08T15:59:25;31.50;;;3.35;;
49548;SDS011;35450;44.518;7.466;2023-10-08T16:02:29;24.77;;;3.13;;
49548;SDS011;35450;44.518;7.466;2023-10-08T16:05:33;25.88;;;4.38;;
49548;SDS011;35450;44.518;7.466;2023-10-08T16:08:37;23.73;;;3.25;;
49548;SDS011;35450;44.518;7.466;2023-10-08T16:11:41;16.85;;;4.60;;
49548;SDS011;35450;44.518;7.466;2023-10-08T16:14:45;19.27;;;3.90;;
49548;SDS011;35450;44.518;7.466;2023-10-08T16:17:49;27.80;;;4.07;;
49548;SDS011;35450;44.518;7.466;2023-10-08T16:20:54;31.15;;;5.00;;
49548;SDS011;35450;44.518;7.466;2023-10-08T16:23:59;26.92;;;3.53;;
49548;SDS011;35450;44.518;7.466;2023-10-08T16:27:03;38.95;;;4.85;;
49548;SDS011;35450;44.518;7.466;2023-10-08T16:30:08;40.90;;;5.13;;
49548;SDS011;35450;44.518;7.466;2023-10-08T16:33:14;37.00;;;3.67;;
49548;SDS011;35450;44.518;7.466;2023-10-08T16:36:18;26.38;;;4.07;;
49548;SDS011;35450;44.518;7.466;2023-10-08T16:39:22;25.83;;;4.13;;
49548;SDS011;35450;44.518;7.466;2023-10-08T16:42:29;43.90;;;4.97;;
49548;SDS011;35450;44.518;7.466;2023-10-08T16:45:33;23.50;;;3.22;;
49548;SDS011;35450;44.518;7.466;2023-10-08T16:48:37;23.08;;;4.32;;
49548;SDS011;35450;44.518;7.466;2023-10-08T16:51:40;33.15;;;4.93;;
49548;SDS011;35450;44.518;7.466;2023-10-08T16:54:44;24.15;;;4.40;;
49548;SDS011;35450;44.518;7.466;2023-10-08T16:57:48;25.20;;;4.68;;
49548;SDS011;35450;44.518;7.466;2023-10-08T17:00:52;32.10;;;3.90;;
49548;SDS011;35450;44.518;7.466;2023-10-08T17:03:56;31.00;;;3.58;;
49548;SDS011;35450;44.518;7.466;2023-10-08T17:07:01;33.03;;;3.85;;
49548;SDS011;35450;44.518;7.466;2023-10-08T17:10:05;20.85;;;3.90;;
49548;SDS011;35450;44.518;7.466;2023-10-08T17:13:09;29.80;;;4.57;;
49548;SDS011;35450;44.518;7.466;2023-10-08T17:16:16;28.90;;;4.75;;
49548;SDS011;35450;44.518;7.466;2023-10-08T17:19:20;34.83;;;3.50;;
49548;SDS011;35450;44.518;7.466;2023-10-08T17:22:27;38.15;;;4.65;;
49548;SDS011;35450;44.518;7.466;2023-10-08T17:25:31;16.73;;;3.78;;
49548;SDS011;35450;44.518;7.466;2023-10-08T17:28:35;36.95;;;3.85;;
49548;SDS011;35450;44.518;7.466;2023-10-08T17:31:39;20.95;;;3.45;;
49548;SDS011;35450;44.518;7.466;2023-10-08T17:34:43;31.92;;;4.28;;
49548;SDS011;35450;44.518;7.466;2023-10-08T17:37:47;39.45;;;4.95;;
49548;SDS011;35450;44.518;7.466;2023-10-08T17:40:52;33.10;;;4.47;;
49548;SDS011;35450;44.518;7.466;2023-10-08T17:43:57;26.92;;;4.20;;
49548;SDS011;35450;44.518;7.466;2023-10-08T17:47:01;33.40;;;4.18;;
49548;SDS011;35450;44.518;7.466;2023-10-08T17:50:06;26.80;;;3.58;;
49548;SDS011;35450;44.518;7.466;2023-10-08T17:53:10;26.95;;;3.85;;
49548;SDS011;35450;44.518;7.466;2023-10-08T17:56:14;30.25;;;4.13;;
49548;SDS011;35450;44.518;7.466;2023-10-08T17:59:19;27.60;;;4.32;;
49548;SDS011;35450;44.518;7.466;2023-10-08T18:02:25;20.25;;;3.60;;
49548;SDS011;35450;44.518;7.466;2023-10-08T18:05:32;35.42;;;4.57;;
49548;SDS011;35450;44.518;7.466;2023-10-08T18:08:36;32.78;;;4.28;;
49548;SDS011;35450;44.518;7.466;2023-10-08T18:11:41;31.98;;;4.10;;
49548;SDS011;35450;44.518;7.466;2023-10-08T18:14:47;27.70;;;4.63;;
49548;SDS011;35450;44.518;7.466;2023-10-08T18:17:51;22.95;;;3.22;;
49548;SDS011;35450;44.518;7.466;2023-10-08T18:20:55;19.00;;;3.88;;
49548;SDS011;35450;44.518;7.466;2023-10-08T18:24:00;32.70;;;4.95;;
49548;SDS011;35450;44.518;7.466;2023-10-08T18:27:05;33.90;;;5.22;;
49548;SDS011;35450;44.518;7.466;2023-10-08T18:30:13;25.00;;;3.95;;
49548;SDS011;35450;44.518;7.466;2023-10-08T18:33:18;20.77;;;3.05;;
49548;SDS011;35450;44.518;7.466;2023-10-08T18:36:22;37.53;;;11.80;;
49548;SDS011;35450;44.518;7.466;2023-10-08T18:39:27;58.85;;;14.90;;
49548;SDS011;35450;44.518;7.466;2023-10-08T18:42:31;33.63;;;8.07;;
49548;SDS011;35450;44.518;7.466;2023-10-08T18:45:35;44.30;;;11.50;;